createdAt,value
2017-01-27T00:00:54.688Z,63.23
2017-01-27T00:02:03.698Z,63.04
2017-01-27T00:03:13.266Z,63.32
2017-01-27T00:04:22.220Z,63.23
2017-01-27T00:05:31.767Z,63.32
2017-01-27T00:06:41.377Z,62.94
2017-01-27T00:07:50.688Z,62.75
2017-01-27T00:09:00.349Z,62.94
2017-01-27T00:10:10.111Z,62.94
2017-01-27T00:11:19.065Z,62.85
2017-01-27T00:12:28.016Z,63.04
2017-01-27T00:13:37.163Z,63.04
2017-01-27T00:14:46.300Z,62.28
2017-01-27T00:15:55.249Z,62.47
2017-01-27T00:17:04.202Z,62.47
2017-01-27T00:18:13.414Z,62.85
2017-01-27T00:19:22.938Z,62.94
2017-01-27T00:20:32.189Z,63.04
2017-01-27T00:21:41.225Z,62.85
2017-01-27T00:22:50.266Z,62.28
2017-01-27T00:23:59.222Z,62.56
2017-01-27T00:25:08.340Z,62.47
2017-01-27T00:26:17.710Z,62.47
2017-01-27T00:27:26.660Z,62.47
2017-01-27T00:28:35.619Z,62.37
2017-01-27T00:29:44.654Z,62.47
2017-01-27T00:30:53.606Z,62.56
2017-01-27T00:32:02.556Z,61.99
2017-01-27T00:33:11.509Z,62.18
2017-01-27T00:34:20.469Z,61.99
2017-01-27T00:35:29.510Z,62.28
2017-01-27T00:36:38.464Z,62.28
2017-01-27T00:37:47.538Z,62.18
2017-01-27T00:38:56.648Z,62.37
2017-01-27T00:40:05.599Z,62.18
2017-01-27T00:41:14.559Z,62.09
2017-01-27T00:42:23.920Z,62.28
2017-01-27T00:43:33.253Z,62.28
2017-01-27T00:44:42.272Z,62.47
2017-01-27T00:45:51.732Z,62.28
2017-01-27T00:47:00.683Z,62.47
2017-01-27T00:48:09.980Z,62.47
2017-01-27T00:49:18.932Z,62.47
2017-01-27T00:50:27.931Z,62.47
2017-01-27T00:51:36.970Z,62.37
2017-01-27T00:52:46.011Z,62.47
2017-01-27T00:53:55.151Z,62.47
2017-01-27T00:55:04.108Z,62.37
2017-01-27T00:56:13.056Z,62.37
2017-01-27T00:57:22.562Z,62.37
2017-01-27T00:58:32.516Z,62.37
2017-01-27T00:59:42.065Z,62.28
2017-01-27T01:00:51.350Z,61.99
2017-01-27T01:02:00.307Z,62.47
2017-01-27T01:03:09.261Z,62.37
2017-01-27T01:04:18.630Z,62.47
2017-01-27T01:05:27.584Z,61.99
2017-01-27T01:06:36.539Z,62.37
2017-01-27T01:07:45.486Z,62.37
2017-01-27T01:08:54.434Z,62.47
2017-01-27T01:10:03.390Z,62.37
2017-01-27T01:11:12.349Z,62.37
2017-01-27T01:12:21.308Z,62.56
2017-01-27T01:13:30.365Z,62.28
2017-01-27T01:14:39.449Z,61.99
2017-01-27T01:15:48.401Z,62.37
2017-01-27T01:16:57.448Z,62.47
2017-01-27T01:18:06.402Z,62.09
2017-01-27T01:19:15.365Z,62.18
2017-01-27T01:20:24.406Z,61.99
2017-01-27T01:21:33.360Z,62.37
2017-01-27T01:22:42.323Z,61.99
2017-01-27T01:23:52.108Z,62.15
2017-01-27T01:25:02.818Z,62.18
2017-01-27T01:26:13.025Z,62.06
2017-01-27T01:27:25.046Z,62.15
2017-01-27T01:28:35.487Z,62.15
2017-01-27T01:29:45.928Z,62.47
2017-01-27T01:30:55.088Z,62.34
2017-01-27T01:32:04.289Z,62.25
2017-01-27T01:33:13.739Z,61.96
2017-01-27T01:34:24.626Z,62.53
2017-01-27T01:35:35.060Z,62.15
2017-01-27T01:36:44.670Z,61.96
2017-01-27T01:37:53.778Z,62.34
2017-01-27T01:39:02.790Z,62.25
2017-01-27T01:40:11.748Z,62.53
2017-01-27T01:41:21.630Z,62.34
2017-01-27T01:42:33.596Z,62.34
2017-01-27T01:43:44.052Z,62.44
2017-01-27T01:44:56.330Z,62.34
2017-01-27T01:46:06.902Z,62.34
2017-01-27T01:47:17.855Z,62.15
2017-01-27T01:48:28.945Z,62.15
2017-01-27T01:49:38.200Z,62.34
2017-01-27T01:50:47.238Z,62.25
2017-01-27T01:51:56.192Z,62.15
2017-01-27T01:53:06.338Z,62.06
2017-01-27T01:54:18.673Z,62.15
2017-01-27T01:55:27.915Z,62.44
2017-01-27T01:56:36.868Z,62.25
2017-01-27T01:57:48.152Z,62.25
2017-01-27T01:59:00.155Z,62.15
2017-01-27T02:00:09.102Z,62.06
2017-01-27T02:01:20.149Z,62.15
2017-01-27T02:02:29.266Z,62.34
2017-01-27T02:03:41.674Z,62.44
2017-01-27T02:04:53.954Z,62.25
2017-01-27T02:06:03.002Z,61.77
2017-01-27T02:07:13.457Z,61.58
2017-01-27T02:08:23.266Z,61.58
2017-01-27T02:09:32.217Z,61.96
2017-01-27T02:10:43.238Z,61.77
2017-01-27T02:11:54.058Z,62.06
2017-01-27T02:13:08.420Z,62.25
2017-01-27T02:14:21.128Z,62.06
2017-01-27T02:15:33.214Z,62.06
2017-01-27T02:16:45.611Z,61.58
2017-01-27T02:17:54.654Z,61.77
2017-01-27T02:19:03.699Z,61.68
2017-01-27T02:20:12.660Z,61.68
2017-01-27T02:21:21.614Z,61.68
2017-01-27T02:22:30.563Z,61.49
2017-01-27T02:23:39.509Z,61.87
2017-01-27T02:24:48.462Z,61.77
2017-01-27T02:25:57.419Z,61.68
2017-01-27T02:27:06.364Z,61.77
2017-01-27T02:28:15.730Z,61.77
2017-01-27T02:29:24.678Z,61.87
2017-01-27T02:30:33.630Z,61.87
2017-01-27T02:31:42.586Z,61.77
2017-01-27T02:32:51.537Z,61.49
2017-01-27T02:34:01.329Z,61.58
2017-01-27T02:35:10.277Z,61.87
2017-01-27T02:36:19.227Z,61.68
2017-01-27T02:37:28.266Z,61.77
2017-01-27T02:38:37.219Z,61.87
2017-01-27T02:39:46.198Z,61.77
2017-01-27T02:40:55.144Z,61.58
2017-01-27T02:42:04.093Z,61.68
2017-01-27T02:43:13.447Z,61.58
2017-01-27T02:44:22.479Z,61.96
2017-01-27T02:45:31.836Z,62.15
2017-01-27T02:46:40.789Z,62.34
2017-01-27T02:47:49.858Z,62.25
2017-01-27T02:48:58.814Z,62.34
2017-01-27T02:50:07.766Z,62.15
2017-01-27T02:51:16.716Z,61.68
2017-01-27T02:52:25.663Z,62.15
2017-01-27T02:53:34.614Z,62.15
2017-01-27T02:54:43.570Z,62.15
2017-01-27T02:55:52.521Z,62.06
2017-01-27T02:57:01.479Z,61.87
2017-01-27T02:58:10.426Z,61.87
2017-01-27T02:59:19.379Z,61.77
2017-01-27T03:00:28.431Z,62.06
2017-01-27T03:01:37.472Z,61.87
2017-01-27T03:02:46.422Z,61.87
2017-01-27T03:03:55.459Z,61.68
2017-01-27T03:05:04.411Z,61.87
2017-01-27T03:06:13.359Z,62.44
2017-01-27T03:07:22.402Z,61.77
2017-01-27T03:08:31.438Z,61.77
2017-01-27T03:09:40.401Z,61.58
2017-01-27T03:10:49.354Z,61.4
2017-01-27T03:11:58.306Z,61.58
2017-01-27T03:13:07.262Z,61.87
2017-01-27T03:14:16.227Z,61.68
2017-01-27T03:15:25.587Z,61.49
2017-01-27T03:16:34.953Z,61.77
2017-01-27T03:17:43.908Z,61.58
2017-01-27T03:18:52.861Z,61.68
2017-01-27T03:20:01.810Z,61.77
2017-01-27T03:21:10.779Z,61.68
2017-01-27T03:22:19.728Z,61.68
2017-01-27T03:23:28.706Z,61.87
2017-01-27T03:24:37.661Z,61.58
2017-01-27T03:25:47.028Z,61.68
2017-01-27T03:26:56.071Z,61.49
2017-01-27T03:28:05.029Z,61.77
2017-01-27T03:29:13.981Z,61.68
2017-01-27T03:30:23.370Z,61.58
2017-01-27T03:31:32.320Z,61.68
2017-01-27T03:32:41.273Z,61.68
2017-01-27T03:33:50.230Z,61.87
2017-01-27T03:34:59.179Z,61.3
2017-01-27T03:36:08.126Z,61.3
2017-01-27T03:37:17.076Z,61.4
2017-01-27T03:38:26.117Z,61.49
2017-01-27T03:39:35.077Z,61.3
2017-01-27T03:40:44.036Z,61.58
2017-01-27T03:41:52.987Z,61.3
2017-01-27T03:43:01.945Z,61.58
2017-01-27T03:44:10.898Z,61.49
2017-01-27T03:45:19.850Z,61.49
2017-01-27T03:46:28.798Z,61.49
2017-01-27T03:47:37.751Z,61.49
2017-01-27T03:48:47.105Z,61.58
2017-01-27T03:49:56.059Z,61.49
2017-01-27T03:51:05.100Z,61.4
2017-01-27T03:52:14.057Z,61.3
2017-01-27T03:53:23.005Z,61.3
2017-01-27T03:54:31.995Z,61.4
2017-01-27T03:55:41.058Z,61.21
2017-01-27T03:56:50.013Z,61.02
2017-01-27T03:57:58.996Z,61.11
2017-01-27T03:59:07.959Z,60.83
2017-01-27T04:00:16.910Z,60.83
2017-01-27T04:01:26.120Z,60.74
2017-01-27T04:02:35.486Z,60.93
2017-01-27T04:03:44.607Z,61.11
2017-01-27T04:04:53.562Z,60.64
2017-01-27T04:06:02.511Z,60.93
2017-01-27T04:07:11.467Z,60.55
2017-01-27T04:08:20.414Z,60.26
2017-01-27T04:09:29.367Z,59.98
2017-01-27T04:10:38.328Z,60.17
2017-01-27T04:11:47.283Z,60.36
2017-01-27T04:12:56.241Z,60.26
2017-01-27T04:14:05.198Z,60.17
2017-01-27T04:15:14.158Z,60.17
2017-01-27T04:16:23.108Z,60.26
2017-01-27T04:17:32.472Z,60.36
2017-01-27T04:18:41.421Z,60.26
2017-01-27T04:19:50.459Z,59.88
2017-01-27T04:20:59.446Z,59.79
2017-01-27T04:22:08.406Z,59.98
2017-01-27T04:23:17.357Z,59.6
2017-01-27T04:24:26.393Z,59.41
2017-01-27T04:25:35.760Z,59.41
2017-01-27T04:26:44.714Z,59.41
2017-01-27T04:27:54.075Z,59.6
2017-01-27T04:29:03.028Z,59.31
2017-01-27T04:30:11.986Z,59.31
2017-01-27T04:31:20.940Z,59.31
2017-01-27T04:32:29.890Z,59.31
2017-01-27T04:33:38.873Z,59.6
2017-01-27T04:34:47.824Z,59.41
2017-01-27T04:35:56.969Z,59.03
2017-01-27T04:37:05.922Z,59.12
2017-01-27T04:38:14.881Z,58.84
2017-01-27T04:39:23.836Z,58.75
2017-01-27T04:40:32.793Z,59.03
2017-01-27T04:41:42.153Z,58.94
2017-01-27T04:42:51.134Z,59.03
2017-01-27T04:44:00.090Z,59.12
2017-01-27T04:45:09.049Z,59.22
2017-01-27T04:46:18.001Z,58.94
2017-01-27T04:47:26.960Z,58.56
2017-01-27T04:48:35.907Z,59.31
2017-01-27T04:49:44.915Z,59.31
2017-01-27T04:50:53.993Z,59.12
2017-01-27T04:52:02.961Z,58.84
2017-01-27T04:53:11.994Z,58.84
2017-01-27T04:54:20.949Z,58.84
2017-01-27T04:55:29.899Z,58.75
2017-01-27T04:56:38.855Z,58.56
2017-01-27T04:57:47.815Z,58.65
2017-01-27T04:58:56.762Z,58.28
2017-01-27T05:00:05.710Z,57.99
2017-01-27T05:01:14.686Z,58.28
2017-01-27T05:02:23.634Z,58.56
2017-01-27T05:03:32.584Z,58.37
2017-01-27T05:04:41.545Z,57.99
2017-01-27T05:05:50.521Z,58.47
2017-01-27T05:06:59.479Z,58.47
2017-01-27T05:08:08.428Z,58.28
2017-01-27T05:09:17.405Z,58.37
2017-01-27T05:10:26.441Z,58.37
2017-01-27T05:11:35.397Z,58.09
2017-01-27T05:12:44.346Z,58.47
2017-01-27T05:13:53.334Z,58.37
2017-01-27T05:15:02.290Z,58.28
2017-01-27T05:16:11.240Z,58.56
2017-01-27T05:17:20.192Z,58.47
2017-01-27T05:18:29.141Z,58.47
2017-01-27T05:19:38.095Z,58.47
2017-01-27T05:20:47.044Z,58.18
2017-01-27T05:21:55.998Z,57.99
2017-01-27T05:23:04.978Z,57.61
2017-01-27T05:24:13.924Z,57.9
2017-01-27T05:25:22.964Z,57.99
2017-01-27T05:26:31.916Z,58.47
2017-01-27T05:27:40.955Z,58.47
2017-01-27T05:28:49.905Z,58.09
2017-01-27T05:29:58.854Z,58.28
2017-01-27T05:31:07.899Z,58.37
2017-01-27T05:32:16.852Z,58.47
2017-01-27T05:33:25.800Z,58.37
2017-01-27T05:34:34.751Z,58.56
2017-01-27T05:35:43.790Z,58.28
2017-01-27T05:36:52.831Z,58.28
2017-01-27T05:38:01.800Z,58.37
2017-01-27T05:39:10.753Z,58.37
2017-01-27T05:40:19.703Z,58.28
2017-01-27T05:41:28.652Z,58.47
2017-01-27T05:42:37.605Z,58.37
2017-01-27T05:43:46.645Z,58.37
2017-01-27T05:44:55.593Z,58.56
2017-01-27T05:46:04.629Z,58.28
2017-01-27T05:47:13.575Z,58.37
2017-01-27T05:48:22.556Z,58.47
2017-01-27T05:49:31.502Z,58.47
2017-01-27T05:50:40.451Z,58.37
2017-01-27T05:51:49.405Z,58.37
2017-01-27T05:52:58.363Z,57.99
2017-01-27T05:54:07.327Z,57.8
2017-01-27T05:55:16.773Z,58.09
2017-01-27T05:56:25.728Z,58.09
2017-01-27T05:57:34.681Z,57.8
2017-01-27T05:58:43.655Z,57.9
2017-01-27T05:59:52.616Z,57.99
2017-01-27T06:01:01.579Z,57.99
2017-01-27T06:02:10.554Z,57.71
2017-01-27T06:03:19.556Z,57.8
2017-01-27T06:04:28.506Z,57.9
2017-01-27T06:05:37.462Z,57.9
2017-01-27T06:06:46.416Z,57.71
2017-01-27T06:07:55.371Z,57.99
2017-01-27T06:09:04.724Z,57.61
2017-01-27T06:10:13.764Z,57.52
2017-01-27T06:11:22.803Z,57.33
2017-01-27T06:12:31.757Z,57.33
2017-01-27T06:13:40.714Z,57.42
2017-01-27T06:14:49.668Z,57.52
2017-01-27T06:15:58.749Z,57.23
2017-01-27T06:17:07.793Z,57.33
2017-01-27T06:18:16.740Z,57.42
2017-01-27T06:19:25.693Z,57.61
2017-01-27T06:20:34.657Z,57.39
2017-01-27T06:21:43.621Z,57.49
2017-01-27T06:22:52.664Z,57.49
2017-01-27T06:24:01.718Z,57.71
2017-01-27T06:25:10.672Z,57.39
2017-01-27T06:26:19.709Z,57.58
2017-01-27T06:27:28.660Z,57.33
2017-01-27T06:28:37.619Z,57.58
2017-01-27T06:29:46.570Z,57.39
2017-01-27T06:30:55.524Z,57.52
2017-01-27T06:32:04.478Z,57.52
2017-01-27T06:33:13.433Z,57.87
2017-01-27T06:34:22.393Z,57.9
2017-01-27T06:35:31.346Z,57.8
2017-01-27T06:36:40.298Z,57.87
2017-01-27T06:37:49.250Z,57.68
2017-01-27T06:38:58.693Z,57.68
2017-01-27T06:40:07.647Z,57.77
2017-01-27T06:41:16.600Z,57.77
2017-01-27T06:42:25.552Z,57.68
2017-01-27T06:43:34.500Z,57.77
2017-01-27T06:44:43.459Z,57.68
2017-01-27T06:45:52.407Z,57.96
2017-01-27T06:47:01.361Z,57.49
2017-01-27T06:48:10.322Z,57.49
2017-01-27T06:49:19.408Z,57.49
2017-01-27T06:50:28.384Z,57.58
2017-01-27T06:51:37.332Z,57.58
2017-01-27T06:52:46.375Z,57.96
2017-01-27T06:53:55.326Z,57.87
2017-01-27T06:55:04.279Z,58.06
2017-01-27T06:56:13.247Z,57.58
2017-01-27T06:57:22.199Z,57.96
2017-01-27T06:58:31.234Z,57.99
2017-01-27T06:59:40.183Z,57.9
2017-01-27T07:00:49.135Z,57.99
2017-01-27T07:01:58.087Z,58.09
2017-01-27T07:03:07.071Z,57.68
2017-01-27T07:04:16.019Z,57.68
2017-01-27T07:05:24.970Z,57.8
2017-01-27T07:06:34.332Z,57.96
2017-01-27T07:07:43.288Z,58.44
2017-01-27T07:08:52.243Z,58.44
2017-01-27T07:10:01.190Z,58.47
2017-01-27T07:11:10.236Z,58.72
2017-01-27T07:12:19.184Z,58.56
2017-01-27T07:13:28.221Z,58.65
2017-01-27T07:14:37.174Z,58.81
2017-01-27T07:15:46.121Z,59.22
2017-01-27T07:16:55.158Z,59.31
2017-01-27T07:18:04.120Z,59.57
2017-01-27T07:19:13.069Z,59.47
2017-01-27T07:20:22.108Z,59.76
2017-01-27T07:21:31.057Z,59.85
2017-01-27T07:22:40.009Z,60.23
2017-01-27T07:23:48.967Z,59.98
2017-01-27T07:24:57.919Z,60.7
2017-01-27T07:26:06.872Z,60.33
2017-01-27T07:27:15.825Z,60.61
2017-01-27T07:28:24.775Z,60.7
2017-01-27T07:29:33.732Z,60.89
2017-01-27T07:30:42.686Z,60.8
2017-01-27T07:31:51.641Z,61.18
2017-01-27T07:33:00.591Z,61.55
2017-01-27T07:34:09.628Z,61.46
2017-01-27T07:35:18.579Z,61.27
2017-01-27T07:36:27.621Z,61.74
2017-01-27T07:37:36.578Z,61.65
2017-01-27T07:38:45.534Z,62.21
2017-01-27T07:39:54.485Z,62.12
2017-01-27T07:41:03.443Z,62.21
2017-01-27T07:42:12.397Z,62.12
2017-01-27T07:43:21.346Z,62.12
2017-01-27T07:44:30.385Z,62.12
2017-01-27T07:45:39.335Z,62.31
2017-01-27T07:46:48.287Z,62.4
2017-01-27T07:47:57.241Z,62.88
2017-01-27T07:49:06.194Z,62.31
2017-01-27T07:50:15.148Z,63.16
2017-01-27T07:51:24.104Z,62.88
2017-01-27T07:52:33.059Z,62.88
2017-01-27T07:53:42.102Z,62.88
2017-01-27T07:54:51.054Z,62.4
2017-01-27T07:56:00.006Z,62.78
2017-01-27T07:57:09.146Z,62.88
2017-01-27T07:58:18.112Z,63.2
2017-01-27T07:59:27.075Z,62.44
2017-01-27T08:00:36.028Z,62.44
2017-01-27T08:01:44.976Z,62.4
2017-01-27T08:02:53.927Z,62.82
2017-01-27T08:04:02.884Z,63.1
2017-01-27T08:05:11.836Z,62.06
2017-01-27T08:06:20.792Z,62.06
2017-01-27T08:07:29.748Z,62.06
2017-01-27T08:08:38.698Z,62.15
2017-01-27T08:09:47.739Z,62.34
2017-01-27T08:10:56.695Z,61.68
2017-01-27T08:12:05.649Z,61.87
2017-01-27T08:13:14.595Z,62.06
2017-01-27T08:14:23.597Z,61.87
2017-01-27T08:15:32.553Z,61.49
2017-01-27T08:16:41.503Z,61.4
2017-01-27T08:17:50.478Z,60.93
2017-01-27T08:18:59.843Z,61.21
2017-01-27T08:20:08.800Z,61.49
2017-01-27T08:21:17.754Z,61.49
2017-01-27T08:22:26.708Z,60.83
2017-01-27T08:23:35.659Z,60.93
2017-01-27T08:24:44.615Z,60.83
2017-01-27T08:25:53.572Z,61.11
2017-01-27T08:27:02.539Z,60.83
2017-01-27T08:28:11.489Z,60.93
2017-01-27T08:29:20.444Z,60.93
2017-01-27T08:30:29.484Z,60.74
2017-01-27T08:31:38.439Z,60.36
2017-01-27T08:32:47.388Z,59.88
2017-01-27T08:33:56.342Z,60.26
2017-01-27T08:35:05.298Z,59.79
2017-01-27T08:36:14.246Z,59.98
2017-01-27T08:37:23.198Z,59.6
2017-01-27T08:38:32.150Z,59.5
2017-01-27T08:39:41.116Z,59.31
2017-01-27T08:40:50.091Z,59.5
2017-01-27T08:41:59.043Z,59.41
2017-01-27T08:43:08.006Z,59.31
2017-01-27T08:44:16.959Z,59.31
2017-01-27T08:45:25.910Z,59.12
2017-01-27T08:46:34.868Z,58.94
2017-01-27T08:47:43.819Z,59.22
2017-01-27T08:48:52.771Z,58.94
2017-01-27T08:50:01.722Z,59.31
2017-01-27T08:51:11.116Z,58.84
2017-01-27T08:52:20.070Z,59.03
2017-01-27T08:53:29.817Z,58.94
2017-01-27T08:54:40.085Z,58.65
2017-01-27T08:55:49.116Z,58.94
2017-01-27T08:56:58.828Z,58.94
2017-01-27T08:58:07.785Z,58.65
2017-01-27T08:59:17.601Z,58.65
2017-01-27T09:00:26.723Z,58.56
2017-01-27T09:01:35.856Z,59.03
2017-01-27T09:02:45.267Z,58.65
2017-01-27T09:03:55.608Z,58.84
2017-01-27T09:05:04.812Z,58.84
2017-01-27T09:06:14.374Z,58.68
2017-01-27T09:07:23.642Z,58.4
2017-01-27T09:08:32.686Z,57.73
2017-01-27T09:09:43.125Z,58.11
2017-01-27T09:10:55.259Z,57.83
2017-01-27T09:12:04.947Z,57.64
2017-01-27T09:13:14.305Z,57.73
2017-01-27T09:14:23.719Z,58.21
2017-01-27T09:15:33.329Z,57.92
2017-01-27T09:16:43.166Z,57.92
2017-01-27T09:17:52.457Z,57.73
2017-01-27T09:19:02.290Z,57.83
2017-01-27T09:20:12.199Z,57.64
2017-01-27T09:21:21.152Z,57.54
2017-01-27T09:22:30.115Z,57.17
2017-01-27T09:23:39.124Z,57.17
2017-01-27T09:24:48.072Z,57.17
2017-01-27T09:25:57.031Z,57.17
2017-01-27T09:27:06.021Z,56.79
2017-01-27T09:28:15.068Z,56.51
2017-01-27T09:29:24.032Z,56.22
2017-01-27T09:30:33.169Z,56.41
2017-01-27T09:31:42.126Z,56.22
2017-01-27T09:32:51.091Z,56.22
2017-01-27T09:34:00.134Z,56.22
2017-01-27T09:35:09.094Z,55.65
2017-01-27T09:36:18.081Z,56.03
2017-01-27T09:37:27.058Z,55.75
2017-01-27T09:38:36.014Z,55.65
2017-01-27T09:39:45.064Z,55.46
2017-01-27T09:40:54.015Z,54.99
2017-01-27T09:42:02.969Z,54.71
2017-01-27T09:43:11.930Z,55.02
2017-01-27T09:44:20.888Z,54.74
2017-01-27T09:45:29.841Z,54.45
2017-01-27T09:46:38.790Z,53.78
2017-01-27T09:47:47.749Z,54.07
2017-01-27T09:48:56.708Z,54.07
2017-01-27T09:50:05.662Z,54.07
2017-01-27T09:51:14.620Z,53.88
2017-01-27T09:52:23.656Z,53.69
2017-01-27T09:53:32.609Z,53.78
2017-01-27T09:54:41.563Z,53.13
2017-01-27T09:55:50.520Z,53.31
2017-01-27T09:56:59.468Z,53.13
2017-01-27T09:58:08.428Z,52.65
2017-01-27T09:59:17.385Z,52.75
2017-01-27T10:00:26.340Z,52.46
2017-01-27T10:01:35.294Z,52.65
2017-01-27T10:02:44.246Z,52.75
2017-01-27T10:03:53.289Z,52.75
2017-01-27T10:05:02.247Z,52.75
2017-01-27T10:06:11.201Z,52.75
2017-01-27T10:07:20.152Z,52.37
2017-01-27T10:08:29.104Z,52.27
2017-01-27T10:09:38.125Z,52.56
2017-01-27T10:10:47.416Z,52.08
2017-01-27T10:11:57.428Z,51.99
2017-01-27T10:13:06.379Z,51.82
2017-01-27T10:14:15.337Z,51.54
2017-01-27T10:15:24.301Z,51.26
2017-01-27T10:16:33.811Z,51.82
2017-01-27T10:17:43.899Z,51.64
2017-01-27T10:18:53.292Z,51.64
2017-01-27T10:20:03.555Z,51.16
2017-01-27T10:21:13.083Z,50.97
2017-01-27T10:22:22.033Z,50.97
2017-01-27T10:23:31.567Z,51.26
2017-01-27T10:24:40.770Z,50.59
2017-01-27T10:25:50.378Z,49.84
2017-01-27T10:27:00.057Z,49.55
2017-01-27T10:28:09.736Z,49.27
2017-01-27T10:29:18.693Z,48.89
2017-01-27T10:30:27.655Z,49.08
2017-01-27T10:31:37.109Z,48.89
2017-01-27T10:32:46.713Z,48.98
2017-01-27T10:33:55.755Z,48.79
2017-01-27T10:35:05.318Z,48.7
2017-01-27T10:36:14.273Z,48.41
2017-01-27T10:37:23.808Z,47.85
2017-01-27T10:38:32.758Z,48.03
2017-01-27T10:39:41.721Z,48.22
2017-01-27T10:40:50.679Z,48.22
2017-01-27T10:41:59.630Z,48.03
2017-01-27T10:43:08.592Z,47.68
2017-01-27T10:44:17.547Z,47.37
2017-01-27T10:45:26.503Z,47.09
2017-01-27T10:46:35.464Z,47.09
2017-01-27T10:47:44.427Z,47.49
2017-01-27T10:48:54.204Z,46.99
2017-01-27T10:50:03.162Z,47.39
2017-01-27T10:51:12.114Z,46.92
2017-01-27T10:52:21.067Z,46.83
2017-01-27T10:53:30.034Z,46.83
2017-01-27T10:54:38.988Z,46.26
2017-01-27T10:55:48.113Z,46.35
2017-01-27T10:56:57.704Z,45.5
2017-01-27T10:58:07.396Z,45.69
2017-01-27T10:59:17.148Z,46.07
2017-01-27T11:00:28.556Z,45.97
2017-01-27T11:01:41.369Z,45.97
2017-01-27T11:02:52.811Z,45.69
2017-01-27T11:04:02.548Z,45.88
2017-01-27T11:05:11.549Z,45.59
2017-01-27T11:06:20.919Z,45.5
2017-01-27T11:07:31.153Z,45.69
2017-01-27T11:08:41.714Z,45.78
2017-01-27T11:09:51.032Z,46.16
2017-01-27T11:11:01.793Z,46.07
2017-01-27T11:12:11.424Z,46.16
2017-01-27T11:13:22.903Z,45.97
2017-01-27T11:14:34.715Z,45.5
2017-01-27T11:15:43.707Z,45.21
2017-01-27T11:16:53.839Z,44.74
2017-01-27T11:18:03.366Z,45.03
2017-01-27T11:19:13.000Z,44.93
2017-01-27T11:20:22.862Z,45.12
2017-01-27T11:21:32.403Z,44.84
2017-01-27T11:22:42.208Z,45.03
2017-01-27T11:23:51.904Z,44.84
2017-01-27T11:25:01.816Z,44.84
2017-01-27T11:26:16.376Z,44.93
2017-01-27T11:27:31.020Z,44.74
2017-01-27T11:28:47.679Z,45.03
2017-01-27T11:30:06.107Z,44.74
2017-01-27T11:31:22.952Z,44.36
2017-01-27T11:32:32.447Z,44.36
2017-01-27T11:33:42.123Z,44.76
2017-01-27T11:34:52.104Z,43.98
2017-01-27T11:36:02.014Z,44.08
2017-01-27T11:37:11.649Z,43.88
2017-01-27T11:38:21.493Z,44.46
2017-01-27T11:39:31.421Z,44.57
2017-01-27T11:40:40.661Z,44.38
2017-01-27T11:41:50.310Z,44.76
2017-01-27T11:42:59.671Z,43.82
2017-01-27T11:44:09.267Z,44.1
2017-01-27T11:45:19.251Z,43.82
2017-01-27T11:46:28.515Z,43.82
2017-01-27T11:47:38.448Z,43.72
2017-01-27T11:48:47.722Z,43.15
2017-01-27T11:49:57.667Z,43.43
2017-01-27T11:51:06.655Z,43.43
2017-01-27T11:52:15.976Z,43.24
2017-01-27T11:53:24.931Z,43.24
2017-01-27T11:54:35.072Z,43.15
2017-01-27T11:55:44.800Z,43.34
2017-01-27T11:56:54.708Z,43.43
2017-01-27T11:58:03.676Z,43.34
2017-01-27T11:59:12.961Z,43.53
2017-01-27T12:00:21.920Z,43.62
2017-01-27T12:01:30.887Z,43.53
2017-01-27T12:02:40.440Z,43.72
2017-01-27T12:03:49.394Z,43.43
2017-01-27T12:04:58.353Z,43.05
2017-01-27T12:06:07.321Z,43.24
2017-01-27T12:07:16.288Z,43.72
2017-01-27T12:08:25.272Z,43.62
2017-01-27T12:09:34.229Z,43.43
2017-01-27T12:10:43.186Z,43.62
2017-01-27T12:11:52.142Z,43.79
2017-01-27T12:13:01.516Z,43.72
2017-01-27T12:14:10.476Z,43.79
2017-01-27T12:15:19.434Z,43.82
2017-01-27T12:16:28.390Z,44.08
2017-01-27T12:17:37.355Z,43.91
2017-01-27T12:18:46.313Z,43.98
2017-01-27T12:19:55.270Z,43.88
2017-01-27T12:21:04.235Z,43.98
2017-01-27T12:22:13.193Z,44.17
2017-01-27T12:23:22.149Z,43.79
2017-01-27T12:24:31.107Z,43.98
2017-01-27T12:25:40.063Z,43.88
2017-01-27T12:26:49.014Z,43.6
2017-01-27T12:27:57.968Z,43.6
2017-01-27T12:29:06.926Z,43.88
2017-01-27T12:30:15.879Z,43.51
2017-01-27T12:31:24.832Z,44.01
2017-01-27T12:32:33.881Z,44.01
2017-01-27T12:33:42.935Z,43.91
2017-01-27T12:34:52.306Z,43.91
2017-01-27T12:36:01.352Z,43.82
2017-01-27T12:37:10.355Z,43.82
2017-01-27T12:38:19.309Z,43.91
2017-01-27T12:39:28.351Z,43.82
2017-01-27T12:40:37.315Z,43.62
2017-01-27T12:41:46.303Z,43.62
2017-01-27T12:42:55.264Z,43.15
2017-01-27T12:44:04.223Z,43.43
2017-01-27T12:45:13.184Z,43.34
2017-01-27T12:46:22.134Z,43.15
2017-01-27T12:47:31.092Z,43.15
2017-01-27T12:48:40.085Z,42.96
2017-01-27T12:49:49.453Z,42.86
2017-01-27T12:50:58.817Z,42.77
2017-01-27T12:52:07.777Z,42.77
2017-01-27T12:53:16.732Z,42.68
2017-01-27T12:54:25.684Z,42.96
2017-01-27T12:55:34.640Z,42.77
2017-01-27T12:56:43.640Z,42.68
2017-01-27T12:57:52.602Z,42.58
2017-01-27T12:59:01.566Z,42.96
2017-01-27T13:00:11.073Z,42.77
2017-01-27T13:01:20.864Z,42.89
2017-01-27T13:02:30.077Z,42.51
2017-01-27T13:03:39.602Z,42.6
2017-01-27T13:04:48.557Z,42.7
2017-01-27T13:05:57.600Z,42.79
2017-01-27T13:07:06.574Z,42.6
2017-01-27T13:08:15.527Z,42.39
2017-01-27T13:09:24.487Z,42.32
2017-01-27T13:10:33.847Z,42.41
2017-01-27T13:11:42.808Z,42.22
2017-01-27T13:12:51.765Z,42.89
2017-01-27T13:14:00.816Z,42.89
2017-01-27T13:15:09.783Z,42.79
2017-01-27T13:16:18.738Z,42.6
2017-01-27T13:17:27.698Z,42.41
2017-01-27T13:18:36.746Z,42.6
2017-01-27T13:19:45.726Z,42.7
2017-01-27T13:20:54.683Z,42.13
2017-01-27T13:22:03.644Z,42.03
2017-01-27T13:23:12.689Z,42.03
2017-01-27T13:24:21.646Z,41.85
2017-01-27T13:25:30.605Z,42.7
2017-01-27T13:26:39.565Z,42.03
2017-01-27T13:27:48.519Z,41.75
2017-01-27T13:28:57.567Z,41.66
2017-01-27T13:30:06.609Z,42.03
2017-01-27T13:31:15.653Z,42.6
2017-01-27T13:32:24.604Z,42.6
2017-01-27T13:33:33.563Z,42.13
2017-01-27T13:34:42.521Z,41.75
2017-01-27T13:35:51.480Z,41.66
2017-01-27T13:37:00.438Z,41.85
2017-01-27T13:38:09.394Z,41.75
2017-01-27T13:39:18.349Z,41.75
2017-01-27T13:40:27.390Z,41.46
2017-01-27T13:41:36.346Z,41.75
2017-01-27T13:42:45.302Z,41.75
2017-01-27T13:43:54.261Z,41.94
2017-01-27T13:45:03.218Z,41.85
2017-01-27T13:46:12.174Z,41.85
2017-01-27T13:47:21.129Z,41.75
2017-01-27T13:48:30.087Z,42.03
2017-01-27T13:49:39.132Z,41.66
2017-01-27T13:50:48.503Z,42.03
2017-01-27T13:51:57.465Z,41.85
2017-01-27T13:53:06.837Z,41.56
2017-01-27T13:54:15.787Z,41.37
2017-01-27T13:55:24.746Z,41.66
2017-01-27T13:56:33.709Z,41.37
2017-01-27T13:57:42.700Z,41.46
2017-01-27T13:58:51.659Z,41.85
2017-01-27T14:00:00.614Z,41.94
2017-01-27T14:01:09.672Z,41.85
2017-01-27T14:02:18.629Z,41.75
2017-01-27T14:03:27.582Z,41.75
2017-01-27T14:04:36.538Z,41.46
2017-01-27T14:05:45.498Z,41.46
2017-01-27T14:06:54.542Z,41.37
2017-01-27T14:08:03.568Z,41.56
2017-01-27T14:09:12.528Z,41.37
2017-01-27T14:10:21.482Z,41.66
2017-01-27T14:11:30.430Z,41.85
2017-01-27T14:12:39.387Z,41.75
2017-01-27T14:13:48.343Z,41.75
2017-01-27T14:14:57.328Z,41.66
2017-01-27T14:16:06.286Z,41.75
2017-01-27T14:17:15.665Z,41.56
2017-01-27T14:18:24.621Z,41.46
2017-01-27T14:19:33.579Z,41.37
2017-01-27T14:20:42.535Z,41.37
2017-01-27T14:21:51.495Z,41.56
2017-01-27T14:23:00.454Z,41.56
2017-01-27T14:24:09.413Z,41.75
2017-01-27T14:25:18.380Z,41.94
2017-01-27T14:26:27.367Z,41.66
2017-01-27T14:27:36.323Z,41.37
2017-01-27T14:28:45.290Z,41.66
2017-01-27T14:29:54.245Z,41.56
2017-01-27T14:31:03.609Z,41.46
2017-01-27T14:32:12.568Z,41.46
2017-01-27T14:33:21.524Z,41.56
2017-01-27T14:34:30.483Z,41.66
2017-01-27T14:35:39.438Z,41.66
2017-01-27T14:36:48.394Z,41.85
2017-01-27T14:37:57.392Z,41.75
2017-01-27T14:39:06.935Z,41.75
2017-01-27T14:40:15.888Z,42.03
2017-01-27T14:41:24.844Z,42.03
2017-01-27T14:42:33.795Z,42.03
2017-01-27T14:43:42.753Z,41.66
2017-01-27T14:44:51.707Z,41.75
2017-01-27T14:46:00.663Z,41.85
2017-01-27T14:47:09.713Z,41.75
2017-01-27T14:48:18.663Z,41.75
2017-01-27T14:49:27.616Z,41.85
2017-01-27T14:50:36.581Z,41.66
2017-01-27T14:51:45.540Z,41.75
2017-01-27T14:52:54.505Z,41.85
2017-01-27T14:54:03.470Z,41.94